createdAt,value
2018-12-09T00:01:46.443Z,94951.42
2018-12-09T00:04:16.943Z,94948.80
2018-12-09T00:06:47.465Z,94950.55
2018-12-09T00:09:18.446Z,94944.69
2018-12-09T00:11:49.577Z,94948.66
2018-12-09T00:14:20.260Z,94945.84
2018-12-09T00:16:50.816Z,94935.83
2018-12-09T00:19:22.623Z,94946.30
2018-12-09T00:21:53.250Z,94951.87
2018-12-09T00:24:23.987Z,94948.55
2018-12-09T00:26:54.603Z,94958.56
2018-12-09T00:29:26.483Z,94964.38
2018-12-09T00:31:57.005Z,94963.80
2018-12-09T00:34:27.250Z,94965.34
2018-12-09T00:36:58.010Z,94965.11
2018-12-09T00:39:29.178Z,94961.61
2018-12-09T00:41:59.720Z,94958.29
2018-12-09T00:44:30.851Z,94958.11
2018-12-09T00:47:01.392Z,94959.71
2018-12-09T00:49:33.205Z,94963.27
2018-12-09T00:52:03.691Z,94956.16
2018-12-09T00:54:35.009Z,94952.22
2018-12-09T00:57:05.612Z,94959.47
2018-12-09T00:59:36.411Z,94961.09
2018-12-09T01:02:13.589Z,94949.76
2018-12-09T01:04:44.063Z,94951.77
2018-12-09T01:07:14.930Z,94943.77
2018-12-09T01:09:45.686Z,94948.23
2018-12-09T01:12:16.730Z,94945.52
2018-12-09T01:14:47.620Z,94943.50
2018-12-09T01:17:18.324Z,94937.10
2018-12-09T01:19:49.837Z,94938.42
2018-12-09T01:22:20.432Z,94928.86
2018-12-09T01:24:51.271Z,94931.45
2018-12-09T01:27:22.163Z,94942.75
2018-12-09T01:29:53.702Z,94937.95
2018-12-09T01:32:25.136Z,94931.84
2018-12-09T01:34:55.411Z,94929.66
2018-12-09T01:37:26.517Z,94923.81
2018-12-09T01:39:58.958Z,94923.55
2018-12-09T01:42:30.448Z,94914.38
2018-12-09T01:45:01.060Z,94911.11
2018-12-09T01:47:31.678Z,94859.41
2018-12-09T01:50:02.756Z,94915.66
2018-12-09T01:52:33.517Z,94911.91
2018-12-09T01:55:04.597Z,94914.50
2018-12-09T01:57:35.543Z,94916.33
2018-12-09T02:00:06.872Z,94913.00
2018-12-09T02:02:37.811Z,94910.67
2018-12-09T02:05:08.536Z,94903.09
2018-12-09T02:07:39.761Z,94908.31
2018-12-09T02:10:11.388Z,94902.02
2018-12-09T02:12:42.071Z,94895.88
2018-12-09T02:15:12.903Z,94893.28
2018-12-09T02:17:44.241Z,94897.81
2018-12-09T02:20:15.290Z,94886.17
2018-12-09T02:22:45.624Z,94891.05
2018-12-09T02:25:16.043Z,94896.75
2018-12-09T02:27:46.339Z,94895.98
2018-12-09T02:30:17.372Z,94888.05
2018-12-09T02:32:47.812Z,94886.94
2018-12-09T02:35:18.258Z,94881.54
2018-12-09T02:37:49.036Z,94882.45
2018-12-09T02:40:19.312Z,94884.33
2018-12-09T02:42:49.764Z,94841.98
2018-12-09T02:45:20.470Z,94881.45
2018-12-09T02:47:50.986Z,94887.33
2018-12-09T02:50:21.911Z,94884.61
2018-12-09T02:52:52.332Z,94885.66
2018-12-09T02:55:22.773Z,94881.36
2018-12-09T02:57:53.291Z,94877.05
2018-12-09T03:00:23.772Z,94887.93
2018-12-09T03:02:54.398Z,94889.70
2018-12-09T03:05:24.674Z,94884.84
2018-12-09T03:07:55.453Z,94887.70
2018-12-09T03:10:27.315Z,94880.41
2018-12-09T03:12:58.250Z,94872.81
2018-12-09T03:15:28.888Z,94865.13
2018-12-09T03:17:59.530Z,94873.95
2018-12-09T03:20:30.593Z,94867.24
2018-12-09T03:23:01.145Z,94859.93
2018-12-09T03:25:31.706Z,94859.16
2018-12-09T03:28:02.032Z,94865.83
2018-12-09T03:30:34.080Z,94864.03
2018-12-09T03:33:04.792Z,94859.83
2018-12-09T03:35:35.570Z,94867.47
2018-12-09T03:38:06.284Z,94864.89
2018-12-09T03:40:37.166Z,94863.77
2018-12-09T03:43:07.683Z,94852.88
2018-12-09T03:45:38.717Z,94861.61
2018-12-09T03:48:09.433Z,94863.73
2018-12-09T03:50:41.203Z,94868.36
2018-12-09T03:53:11.858Z,94865.59
2018-12-09T03:55:42.585Z,94868.80
2018-12-09T03:58:13.668Z,94873.21
2018-12-09T04:00:44.752Z,94865.20
2018-12-09T04:03:15.108Z,94872.41
2018-12-09T04:05:45.460Z,94867.92
2018-12-09T04:08:16.159Z,94862.66
2018-12-09T04:10:46.555Z,94867.52
2018-12-09T04:13:17.402Z,94864.97
2018-12-09T04:15:48.192Z,94868.10
2018-12-09T04:18:19.086Z,94873.09
2018-12-09T04:20:49.825Z,94872.73
2018-12-09T04:23:20.557Z,94881.05
2018-12-09T04:25:51.677Z,94884.34
2018-12-09T04:28:22.620Z,94883.83
2018-12-09T04:30:53.435Z,94887.53
2018-12-09T04:33:24.496Z,94885.66
2018-12-09T04:35:55.273Z,94888.08
2018-12-09T04:38:26.639Z,94888.23
2018-12-09T04:40:58.400Z,94882.12
2018-12-09T04:43:29.061Z,94886.63
2018-12-09T04:46:00.368Z,94610.02
2018-12-09T04:48:31.147Z,94892.46
2018-12-09T04:51:03.068Z,94884.05
2018-12-09T04:53:34.138Z,94884.12
2018-12-09T04:56:04.840Z,94883.17
2018-12-09T04:58:35.829Z,94879.96
2018-12-09T05:01:06.349Z,94885.37
2018-12-09T05:03:37.087Z,94884.41
2018-12-09T05:06:08.227Z,94877.84
2018-12-09T05:08:38.597Z,94884.34
2018-12-09T05:11:10.672Z,94888.92
2018-12-09T05:13:42.163Z,94892.02
2018-12-09T05:16:13.348Z,94896.02
2018-12-09T05:18:43.804Z,94894.48
2018-12-09T05:21:14.894Z,94900.36
2018-12-09T05:23:45.491Z,94890.61
2018-12-09T05:26:16.205Z,94891.66
2018-12-09T05:28:46.736Z,94899.47
2018-12-09T05:31:18.217Z,94899.31
2018-12-09T05:33:49.156Z,94897.61
2018-12-09T05:36:20.190Z,94897.10
2018-12-09T05:38:50.785Z,94904.73
2018-12-09T05:41:21.865Z,94908.48
2018-12-09T05:43:52.253Z,94907.03
2018-12-09T05:46:23.523Z,94908.98
2018-12-09T05:48:53.778Z,94913.91
2018-12-09T05:51:26.065Z,94905.94
2018-12-09T05:53:56.987Z,94912.90
2018-12-09T05:56:27.738Z,94910.27
2018-12-09T05:58:58.323Z,94913.73
2018-12-09T06:01:31.412Z,94906.93
2018-12-09T06:04:02.477Z,94906.97
2018-12-09T06:06:33.115Z,94908.46
2018-12-09T06:09:03.631Z,94905.50
2018-12-09T06:11:34.965Z,94909.48
2018-12-09T06:14:06.142Z,94632.03
2018-12-09T06:16:36.413Z,94908.92
2018-12-09T06:19:07.316Z,94902.70
2018-12-09T06:21:38.574Z,94900.91
2018-12-09T06:24:09.246Z,94906.38
2018-12-09T06:26:39.787Z,94809.85
2018-12-09T06:29:10.755Z,94901.39
2018-12-09T06:31:41.871Z,94906.86
2018-12-09T06:34:12.339Z,94901.03
2018-12-09T06:36:42.661Z,94911.38
2018-12-09T06:39:13.188Z,94909.83
2018-12-09T06:41:43.461Z,94902.70
2018-12-09T06:44:14.175Z,94908.04
2018-12-09T06:46:44.655Z,94904.52
2018-12-09T06:49:15.431Z,94909.14
2018-12-09T06:51:46.388Z,94907.34
2018-12-09T06:54:16.780Z,94897.38
2018-12-09T06:56:47.345Z,94902.87
2018-12-09T06:59:17.867Z,94915.48
2018-12-09T07:01:49.418Z,94895.70
2018-12-09T07:04:20.137Z,94896.91
2018-12-09T07:06:51.375Z,94902.39
2018-12-09T07:09:22.056Z,94895.84
2018-12-09T07:11:53.157Z,94897.84
2018-12-09T07:14:24.473Z,94897.89
2018-12-09T07:16:55.652Z,94891.52
2018-12-09T07:19:26.723Z,94893.87
2018-12-09T07:21:57.927Z,94895.70
2018-12-09T07:24:28.853Z,94894.20
2018-12-09T07:26:59.606Z,94903.81
2018-12-09T07:29:30.771Z,94892.64
2018-12-09T07:32:02.298Z,94898.92
2018-12-09T07:34:33.352Z,94895.22
2018-12-09T07:37:04.392Z,94891.13
2018-12-09T07:39:35.032Z,94893.53
2018-12-09T07:42:06.574Z,94889.51
2018-12-09T07:44:37.345Z,94889.09
2018-12-09T07:47:08.071Z,94878.31
2018-12-09T07:49:38.908Z,94875.57
2018-12-09T07:52:10.939Z,94877.19
2018-12-09T07:54:41.473Z,94873.69
2018-12-09T07:57:11.876Z,94864.44
2018-12-09T07:59:42.961Z,94856.90
2018-12-09T08:02:14.006Z,94800.73
2018-12-09T08:04:45.112Z,94849.61
2018-12-09T08:07:15.806Z,94853.70
2018-12-09T08:09:46.538Z,94841.59
2018-12-09T08:12:18.269Z,94840.20
2018-12-09T08:14:49.609Z,94834.09
2018-12-09T08:17:20.218Z,94830.58
2018-12-09T08:19:51.771Z,94830.11
2018-12-09T08:22:22.853Z,94830.58
2018-12-09T08:24:53.857Z,94821.52
2018-12-09T08:27:24.592Z,94819.86
2018-12-09T08:29:55.552Z,94820.00
2018-12-09T08:32:26.375Z,94813.61
2018-12-09T08:34:57.352Z,94805.01
2018-12-09T08:37:27.855Z,94794.80
2018-12-09T08:39:58.804Z,94793.96
2018-12-09T08:42:30.589Z,94789.58
2018-12-09T08:45:01.673Z,94776.95
2018-12-09T08:47:32.381Z,94769.30
2018-12-09T08:50:03.312Z,94768.03
2018-12-09T08:52:34.037Z,94775.79
2018-12-09T08:55:04.187Z,94768.19
2018-12-09T08:57:34.124Z,94773.23
2018-12-09T09:00:05.376Z,94766.13
2018-12-09T09:02:36.460Z,94759.97
2018-12-09T09:05:07.770Z,94761.70
2018-12-09T09:07:39.283Z,94760.26
2018-12-09T09:10:10.735Z,94748.30
2018-12-09T09:12:42.592Z,94743.33
2018-12-09T09:15:13.272Z,94744.07
2018-12-09T09:17:43.846Z,94730.16
2018-12-09T09:20:14.259Z,94719.73
2018-12-09T09:22:45.474Z,94723.21
2018-12-09T09:25:15.899Z,94718.23
2018-12-09T09:27:46.269Z,94718.73
2018-12-09T09:30:16.637Z,94715.03
2018-12-09T09:32:46.991Z,94703.21
2018-12-09T09:35:17.427Z,94695.06
2018-12-09T09:37:48.192Z,94688.97
2018-12-09T09:40:18.537Z,94688.17
2018-12-09T09:42:49.082Z,94683.95
2018-12-09T09:45:19.822Z,94669.48
2018-12-09T09:47:50.413Z,94668.56
2018-12-09T09:50:20.910Z,94664.13
2018-12-09T09:52:52.182Z,94661.53
2018-12-09T09:55:22.569Z,94669.56
2018-12-09T09:57:52.751Z,94667.50
2018-12-09T10:00:22.895Z,94662.32
2018-12-09T10:02:53.923Z,94658.66
2018-12-09T10:05:24.289Z,94653.36
2018-12-09T10:07:54.646Z,94651.45
2018-12-09T10:10:25.299Z,94641.02
2018-12-09T10:12:55.756Z,94635.83
2018-12-09T10:15:26.363Z,94624.73
2018-12-09T10:17:57.370Z,94616.88
2018-12-09T10:20:28.145Z,94622.44
2018-12-09T10:22:59.081Z,94613.44
2018-12-09T10:25:29.613Z,94610.56
2018-12-09T10:27:59.959Z,94605.15
2018-12-09T10:30:30.464Z,94620.69
2018-12-09T10:33:02.341Z,94599.88
2018-12-09T10:35:33.241Z,94591.98
2018-12-09T10:38:03.822Z,94593.64
2018-12-09T10:40:35.425Z,94583.55
2018-12-09T10:43:06.223Z,94581.22
2018-12-09T10:45:36.984Z,94580.84
2018-12-09T10:48:07.871Z,94578.28
2018-12-09T10:50:38.283Z,94565.41
2018-12-09T10:53:10.178Z,94566.83
2018-12-09T10:55:40.966Z,94561.89
2018-12-09T10:58:12.023Z,94565.39
2018-12-09T11:00:47.642Z,94557.66
2018-12-09T11:03:20.168Z,94558.70
2018-12-09T11:05:51.154Z,94554.41
2018-12-09T11:08:22.791Z,94559.47
2018-12-09T11:10:53.989Z,94552.37
2018-12-09T11:13:25.659Z,94545.34
2018-12-09T11:15:56.688Z,94544.14
2018-12-09T11:18:27.569Z,94544.33
2018-12-09T11:20:58.181Z,94539.55
2018-12-09T11:23:29.391Z,94530.67
2018-12-09T11:26:00.401Z,94528.08
2018-12-09T11:28:31.091Z,94533.38
2018-12-09T11:31:02.348Z,94523.95
2018-12-09T11:33:33.895Z,94523.72
2018-12-09T11:36:04.636Z,94520.73
2018-12-09T11:38:35.364Z,94509.96
2018-12-09T11:41:05.722Z,94503.47
2018-12-09T11:43:37.263Z,94498.25
2018-12-09T11:46:08.340Z,94499.84
2018-12-09T11:48:39.384Z,94506.27
2018-12-09T11:51:10.099Z,94499.34
2018-12-09T11:53:42.193Z,94492.20
2018-12-09T11:56:12.535Z,94486.11
2018-12-09T11:58:43.536Z,94489.78
2018-12-09T12:01:13.977Z,94495.05
2018-12-09T12:03:45.164Z,94494.09
2018-12-09T12:06:16.198Z,94489.56
2018-12-09T12:08:47.197Z,94485.02
2018-12-09T12:11:17.973Z,94482.73
2018-12-09T12:13:49.244Z,94480.29
2018-12-09T12:16:20.455Z,94480.87
2018-12-09T12:18:50.902Z,94476.13
2018-12-09T12:21:21.296Z,94476.25
2018-12-09T12:23:52.668Z,94469.66
2018-12-09T12:26:23.685Z,94466.88
2018-12-09T12:28:54.152Z,94468.22
2018-12-09T12:31:24.554Z,94464.03
2018-12-09T12:33:55.502Z,94458.17
2018-12-09T12:36:25.895Z,94451.25
2018-12-09T12:38:56.532Z,94440.67
2018-12-09T12:41:27.187Z,94441.52
2018-12-09T12:43:58.250Z,94438.92
2018-12-09T12:46:28.664Z,94434.39
2018-12-09T12:48:59.298Z,94433.81
2018-12-09T12:51:30.256Z,94431.79
2018-12-09T12:54:02.012Z,94435.30
2018-12-09T12:56:32.482Z,94433.08
2018-12-09T12:59:02.933Z,94433.39
2018-12-09T13:01:33.788Z,94437.70
2018-12-09T13:04:05.461Z,94427.72
2018-12-09T13:06:36.201Z,94426.95
2018-12-09T13:09:08.510Z,94424.64
2018-12-09T13:11:39.284Z,94425.47
2018-12-09T13:14:10.081Z,94423.46
2018-12-09T13:16:41.192Z,94422.91
2018-12-09T13:19:11.692Z,94418.91
2018-12-09T13:21:42.039Z,94419.00
2018-12-09T13:24:13.467Z,94412.48
2018-12-09T13:26:44.077Z,94414.03
2018-12-09T13:29:14.800Z,94419.39
2018-12-09T13:36:39.440Z,94423.63
2018-12-09T13:39:09.935Z,94432.52
2018-12-09T13:41:40.613Z,94422.69
2018-12-09T13:44:11.101Z,94418.20
2018-12-09T13:46:41.546Z,94423.69
2018-12-09T13:49:12.405Z,94426.27
2018-12-09T13:51:42.942Z,94417.69
2018-12-09T13:54:14.464Z,94412.85
2018-12-09T13:56:45.066Z,94415.09
2018-12-09T13:59:15.515Z,94404.00
2018-12-09T14:01:46.043Z,94404.41
2018-12-09T14:04:17.522Z,94412.19
2018-12-09T14:06:48.253Z,94409.45
2018-12-09T14:09:18.861Z,94411.47
2018-12-09T14:11:49.212Z,94411.47
2018-12-09T14:14:20.208Z,94407.39
2018-12-09T14:16:51.443Z,94411.91
2018-12-09T14:19:21.896Z,94418.58
2018-12-09T14:21:52.539Z,94421.37
2018-12-09T14:24:22.856Z,94420.59
2018-12-09T14:26:53.373Z,94410.07
2018-12-09T14:29:24.328Z,94414.63
2018-12-09T14:31:55.391Z,94411.70
2018-12-09T14:34:26.591Z,94422.16
2018-12-09T14:36:57.284Z,94427.70
2018-12-09T14:39:28.051Z,94432.73
2018-12-09T14:41:58.855Z,94434.72
2018-12-09T14:44:30.059Z,94435.72
2018-12-09T14:47:00.456Z,94432.58
2018-12-09T14:49:31.219Z,94425.95
2018-12-09T14:52:01.800Z,94421.78
2018-12-09T14:54:32.697Z,94426.05
2018-12-09T14:57:03.271Z,94424.31
2018-12-09T14:59:33.767Z,94422.81
2018-12-09T15:02:04.363Z,94418.83
2018-12-09T15:04:35.551Z,94420.84
2018-12-09T15:07:05.936Z,94419.89
2018-12-09T15:09:36.858Z,94364.55
2018-12-09T15:12:08.156Z,94426.97
2018-12-09T15:14:39.672Z,94420.05
2018-12-09T15:17:11.002Z,94426.02
2018-12-09T15:19:41.338Z,94433.09
2018-12-09T15:22:11.705Z,94432.77
2018-12-09T15:24:43.315Z,94432.87
2018-12-09T15:27:13.847Z,94431.66
2018-12-09T15:29:44.467Z,94435.36
2018-12-09T15:32:15.237Z,94434.47
2018-12-09T15:34:47.195Z,94433.79
2018-12-09T15:37:18.007Z,94430.95
2018-12-09T15:39:48.738Z,94439.45
2018-12-09T15:42:19.360Z,94435.34
2018-12-09T15:44:51.110Z,94437.91
2018-12-09T15:47:21.562Z,94444.01
2018-12-09T15:49:52.274Z,94453.74
2018-12-09T15:52:22.908Z,94458.59
2018-12-09T15:54:53.559Z,94442.03
2018-12-09T15:57:24.147Z,94429.77
2018-12-09T15:59:54.599Z,94430.18
2018-12-09T16:02:25.320Z,94432.97
2018-12-09T16:04:57.434Z,94453.98
2018-12-09T16:07:28.042Z,94462.25
2018-12-09T16:09:58.647Z,94468.56
2018-12-09T16:12:29.277Z,94254.16
2018-12-09T16:15:00.669Z,94470.36
2018-12-09T16:17:32.279Z,94473.60
2018-12-09T16:20:02.782Z,94476.95
2018-12-09T16:22:33.315Z,94477.99
2018-12-09T16:25:04.010Z,94474.89
2018-12-09T16:27:34.483Z,94478.03
2018-12-09T16:30:05.196Z,94474.05
2018-12-09T16:32:35.554Z,94475.33
2018-12-09T16:35:06.503Z,94478.78
2018-12-09T16:37:36.952Z,94479.37
2018-12-09T16:40:07.680Z,94484.59
2018-12-09T16:42:38.064Z,94485.48
2018-12-09T16:45:09.466Z,94487.45
2018-12-09T16:47:40.364Z,94488.53
2018-12-09T16:50:10.975Z,94491.82
2018-12-09T16:52:41.380Z,94487.25
2018-12-09T16:55:12.767Z,94491.48
2018-12-09T16:57:43.240Z,94498.16
2018-12-09T17:00:13.612Z,94497.44
2018-12-09T17:02:44.467Z,94499.61
2018-12-09T17:05:15.008Z,94496.72
2018-12-09T17:07:45.421Z,94497.83
2018-12-09T17:10:16.315Z,94496.77
2018-12-09T17:12:46.919Z,94495.20
2018-12-09T17:15:17.901Z,94480.16
2018-12-09T17:17:48.641Z,94481.63
2018-12-09T17:20:18.797Z,94480.61
2018-12-09T17:22:49.315Z,94495.24
2018-12-09T17:25:20.202Z,94500.55
2018-12-09T17:27:50.463Z,94492.38
2018-12-09T17:30:21.107Z,94476.81
2018-12-09T17:32:51.508Z,94477.55
2018-12-09T17:35:22.076Z,94489.36
2018-12-09T17:37:52.594Z,94488.02
2018-12-09T17:40:23.261Z,94502.78
2018-12-09T17:42:54.081Z,94497.52
2018-12-09T17:45:25.030Z,94497.81
2018-12-09T17:47:55.519Z,94332.66
2018-12-09T17:50:25.906Z,94476.25
2018-12-09T17:52:56.253Z,94471.26
2018-12-09T17:55:27.558Z,94489.44
2018-12-09T17:57:58.203Z,94485.75
2018-12-09T18:00:28.764Z,94492.38
2018-12-09T18:02:59.028Z,94494.20
2018-12-09T18:05:29.725Z,94497.63
2018-12-09T18:08:00.119Z,94500.53
2018-12-09T18:10:30.888Z,94496.58
2018-12-09T18:13:01.508Z,94492.13
2018-12-09T18:15:32.597Z,94504.48
2018-12-09T18:18:03.443Z,94503.41
2018-12-09T18:20:33.815Z,94502.38
2018-12-09T18:23:04.359Z,94510.22
2018-12-09T18:25:34.964Z,94499.22
2018-12-09T18:28:05.289Z,94492.09
2018-12-09T18:30:35.858Z,94501.84
2018-12-09T18:33:06.788Z,94499.47
2018-12-09T18:35:37.259Z,94490.53
2018-12-09T18:38:07.496Z,94498.43
2018-12-09T18:40:37.803Z,94497.11
2018-12-09T18:43:08.232Z,94506.32
2018-12-09T18:45:39.930Z,94513.17
2018-12-09T18:48:10.374Z,94511.06
2018-12-09T18:50:40.788Z,94516.31
2018-12-09T18:53:11.439Z,94520.26
2018-12-09T18:55:42.119Z,94528.95
2018-12-09T18:58:12.976Z,94537.34
2018-12-09T19:00:43.295Z,94540.77
2018-12-09T19:03:13.944Z,94542.33
2018-12-09T19:05:44.897Z,94544.16
2018-12-09T19:08:15.530Z,94544.44
2018-12-09T19:10:45.738Z,94550.22
2018-12-09T19:13:16.507Z,94554.13
2018-12-09T19:15:47.110Z,94560.38
2018-12-09T19:18:18.063Z,94567.45
2018-12-09T19:20:48.472Z,94559.36
2018-12-09T19:23:19.096Z,94557.19
2018-12-09T19:25:49.686Z,94551.46
2018-12-09T19:28:20.282Z,94553.30
2018-12-09T19:30:50.759Z,94553.78
2018-12-09T19:33:21.593Z,94547.45
2018-12-09T19:38:17.895Z,94545.64
2018-12-09T19:40:48.170Z,94542.72
2018-12-09T19:43:18.697Z,94550.33
2018-12-09T19:45:49.340Z,94550.98
2018-12-09T19:48:19.964Z,94540.95
2018-12-09T19:50:50.608Z,94544.69
2018-12-09T19:53:21.422Z,94547.09
2018-12-09T19:55:52.249Z,94555.51
2018-12-09T19:58:22.925Z,94564.34
2018-12-09T20:00:53.595Z,94581.77
2018-12-09T20:03:24.143Z,94578.80
2018-12-09T20:05:55.408Z,94584.58
2018-12-09T20:08:25.942Z,94584.33
2018-12-09T20:10:56.674Z,94587.47
2018-12-09T20:13:27.268Z,94589.14
2018-12-09T20:15:58.007Z,94593.38
2018-12-09T20:18:28.721Z,94603.95
2018-12-09T20:20:59.276Z,94604.87
2018-12-09T20:23:29.827Z,94602.49
2018-12-09T20:26:01.182Z,94602.59
2018-12-09T20:28:31.564Z,94610.34
2018-12-09T20:31:01.937Z,94603.55
2018-12-09T20:33:32.342Z,94597.09
2018-12-09T20:36:03.065Z,94590.36
2018-12-09T20:38:33.735Z,94593.42
2018-12-09T20:41:04.115Z,94582.77
2018-12-09T20:43:34.778Z,94570.04
2018-12-09T20:46:06.023Z,94568.14
2018-12-09T20:48:36.549Z,94558.91
2018-12-09T20:51:07.148Z,94553.80
2018-12-09T20:53:37.778Z,94554.03
2018-12-09T20:56:09.551Z,94556.33
2018-12-09T20:58:40.095Z,94548.07
2018-12-09T21:01:10.629Z,94550.05
2018-12-09T21:03:41.078Z,94546.48
2018-12-09T21:06:12.013Z,94534.14
2018-12-09T21:08:42.507Z,94529.39
2018-12-09T21:11:13.146Z,94518.96
2018-12-09T21:13:43.720Z,94525.61
2018-12-09T21:16:14.329Z,94520.16
2018-12-09T21:18:45.096Z,94529.39
2018-12-09T21:21:15.543Z,94537.84
2018-12-09T21:23:46.068Z,94539.50
2018-12-09T21:26:17.569Z,94539.27
2018-12-09T21:28:47.934Z,94431.02
2018-12-09T21:31:17.967Z,94528.56
2018-12-09T21:33:48.620Z,94533.45
2018-12-09T21:36:19.153Z,94531.38
2018-12-09T21:38:49.776Z,94533.16
2018-12-09T21:41:20.416Z,94536.05
2018-12-09T21:43:50.980Z,94533.02
2018-12-09T21:46:22.617Z,94536.19
2018-12-09T21:48:53.227Z,94538.24
2018-12-09T21:51:24.140Z,94532.88
2018-12-09T21:53:54.775Z,94535.70
2018-12-09T21:56:26.647Z,94538.58
2018-12-09T21:58:57.106Z,94538.41
2018-12-09T22:01:27.696Z,94532.36
2018-12-09T22:03:58.163Z,94538.33
2018-12-09T22:06:29.176Z,94537.38
2018-12-09T22:08:59.996Z,94532.36
2018-12-09T22:11:30.397Z,94528.27
2018-12-09T22:14:00.876Z,94525.02
2018-12-09T22:16:32.427Z,94234.99
2018-12-09T22:19:03.313Z,94516.77
2018-12-09T22:21:33.971Z,94508.53
2018-12-09T22:24:04.403Z,94513.03
2018-12-09T22:26:35.514Z,94499.72
2018-12-09T22:29:06.048Z,94498.41
2018-12-09T22:31:36.683Z,94487.95
2018-12-09T22:34:07.170Z,94485.91
2018-12-09T22:36:38.026Z,94474.19
2018-12-09T22:39:08.887Z,94470.78
2018-12-09T22:41:39.731Z,94469.78
2018-12-09T22:44:10.288Z,94471.95
2018-12-09T22:46:42.197Z,94463.67
2018-12-09T22:49:12.793Z,94461.34
2018-12-09T22:51:43.519Z,94453.18
2018-12-09T22:54:14.039Z,94464.41
2018-12-09T22:56:44.906Z,94465.13
2018-12-09T22:59:15.193Z,94471.11
2018-12-09T23:01:50.547Z,94468.95
2018-12-09T23:04:21.053Z,94468.91
2018-12-09T23:06:54.025Z,94469.93
2018-12-09T23:09:24.971Z,94471.59
2018-12-09T23:11:55.667Z,94458.61
2018-12-09T23:14:26.245Z,94456.36
2018-12-09T23:16:58.092Z,94455.97
2018-12-09T23:19:28.923Z,94457.56
2018-12-09T23:21:59.680Z,94460.84
2018-12-09T23:24:30.135Z,94460.17
2018-12-09T23:27:01.640Z,94463.98
2018-12-09T23:29:32.525Z,94469.56
2018-12-09T23:32:02.834Z,94469.95
2018-12-09T23:34:33.507Z,94471.27
2018-12-09T23:37:03.981Z,94468.14
2018-12-09T23:39:34.532Z,94468.98
2018-12-09T23:42:05.189Z,94465.03
2018-12-09T23:44:35.719Z,94464.89
2018-12-09T23:47:07.010Z,94465.63
2018-12-09T23:49:37.637Z,94456.86
2018-12-09T23:52:08.083Z,94459.41
2018-12-09T23:54:38.758Z,94454.74
2018-12-09T23:57:09.840Z,94456.03
2018-12-09T23:59:40.531Z,94458.50
